createdAt,value
2019-03-10T00:03:08.945Z,7.13
2019-03-10T00:08:27.574Z,7.16
2019-03-10T00:13:46.277Z,7.10
2019-03-10T00:19:04.881Z,7.09
2019-03-10T00:24:23.526Z,7.07
2019-03-10T00:29:42.210Z,7.08
2019-03-10T00:35:01.207Z,7.08
2019-03-10T00:40:45.502Z,7.05
2019-03-10T00:46:21.470Z,6.99
2019-03-10T00:52:01.190Z,7.01
2019-03-10T00:57:19.827Z,7.01
2019-03-10T01:02:38.438Z,6.95
2019-03-10T01:07:57.412Z,6.96
2019-03-10T01:13:16.051Z,6.98
2019-03-10T01:18:35.978Z,6.92
2019-03-10T01:23:54.620Z,6.90
2019-03-10T01:29:13.291Z,6.89
2019-03-10T01:34:40.770Z,6.86
2019-03-10T01:39:59.392Z,6.93
2019-03-10T01:45:18.002Z,6.94
2019-03-10T01:50:36.617Z,6.94
2019-03-10T01:55:55.330Z,6.92
2019-03-10T02:01:13.946Z,6.95
2019-03-10T02:06:32.404Z,6.91
2019-03-10T02:11:51.019Z,6.86
2019-03-10T02:17:09.905Z,6.87
2019-03-10T02:22:28.465Z,6.92
2019-03-10T02:27:47.158Z,6.92
2019-03-10T02:33:05.767Z,6.93
2019-03-10T02:38:24.606Z,6.91
2019-03-10T02:43:43.155Z,6.86
2019-03-10T02:49:01.725Z,6.77
2019-03-10T02:54:20.233Z,6.69
2019-03-10T02:59:38.793Z,6.63
2019-03-10T03:04:57.430Z,6.57
2019-03-10T03:10:16.059Z,6.52
2019-03-10T03:15:34.607Z,6.45
2019-03-10T03:20:53.248Z,6.36
2019-03-10T03:26:11.855Z,6.30
2019-03-10T03:31:30.503Z,6.22
2019-03-10T03:36:49.122Z,6.11
2019-03-10T03:42:07.730Z,6.05
2019-03-10T03:47:26.284Z,6.02
2019-03-10T03:52:44.917Z,6.00
2019-03-10T03:58:03.568Z,5.93
2019-03-10T04:03:22.199Z,5.85
2019-03-10T04:08:40.760Z,5.78
2019-03-10T04:13:59.384Z,5.81
2019-03-10T04:19:18.066Z,5.73
2019-03-10T04:24:36.607Z,5.76
2019-03-10T04:29:55.154Z,5.63
2019-03-10T04:35:13.822Z,5.61
2019-03-10T04:40:32.377Z,5.64
2019-03-10T04:45:50.986Z,5.62
2019-03-10T04:51:09.531Z,5.60
2019-03-10T04:56:29.776Z,5.61
2019-03-10T05:01:48.413Z,5.51
2019-03-10T05:07:10.123Z,5.42
2019-03-10T05:12:28.759Z,5.46
2019-03-10T05:17:47.381Z,5.43
2019-03-10T05:23:29.911Z,5.39
2019-03-10T05:28:48.533Z,5.45
2019-03-10T05:34:08.789Z,5.36
2019-03-10T05:39:27.434Z,5.36
2019-03-10T05:44:46.061Z,5.34
2019-03-10T05:50:06.170Z,5.36
2019-03-10T05:55:24.726Z,5.33
2019-03-10T06:00:43.527Z,5.25
2019-03-10T06:06:02.070Z,5.24
2019-03-10T06:11:20.697Z,5.11
2019-03-10T06:16:39.255Z,5.03
2019-03-10T06:21:57.880Z,4.96
2019-03-10T06:27:16.505Z,5.01
2019-03-10T06:32:34.990Z,5.03
2019-03-10T06:37:53.481Z,5.02
2019-03-10T06:43:11.986Z,4.89
2019-03-10T06:48:30.543Z,4.78
2019-03-10T06:53:49.078Z,4.73
2019-03-10T06:59:07.801Z,4.77
2019-03-10T07:04:26.284Z,4.63
2019-03-10T07:09:44.845Z,4.75
2019-03-10T07:15:03.826Z,4.60
2019-03-10T07:20:22.650Z,4.60
2019-03-10T07:25:41.443Z,4.45
2019-03-10T07:31:04.125Z,4.39
2019-03-10T07:36:27.039Z,4.51
2019-03-10T07:41:53.185Z,4.53
2019-03-10T07:47:19.364Z,4.81
2019-03-10T07:52:45.820Z,4.61
2019-03-10T07:58:09.018Z,4.70
2019-03-10T08:03:37.780Z,4.68
2019-03-10T08:09:14.253Z,4.77
2019-03-10T08:14:37.478Z,4.67
2019-03-10T08:19:57.799Z,4.83
2019-03-10T08:25:21.095Z,4.98
2019-03-10T08:30:47.261Z,5.29
2019-03-10T08:41:47.803Z,5.93
2019-03-10T08:47:21.417Z,5.97
2019-03-10T08:52:41.620Z,5.95
2019-03-10T08:58:18.075Z,5.86
2019-03-10T09:03:44.055Z,5.96
2019-03-10T09:09:09.765Z,5.93
2019-03-10T09:14:30.116Z,6.47
2019-03-10T09:20:06.494Z,6.86
2019-03-10T09:25:29.140Z,7.33
2019-03-10T09:31:01.418Z,7.65
2019-03-10T09:36:30.467Z,8.01
2019-03-10T09:41:53.778Z,8.51
2019-03-10T09:47:13.934Z,9.08
2019-03-10T09:52:37.201Z,9.50
2019-03-10T09:58:12.496Z,10.22
2019-03-10T10:03:44.375Z,10.31
2019-03-10T10:09:04.676Z,9.79
2019-03-10T10:14:33.432Z,9.41
2019-03-10T10:20:05.277Z,9.26
2019-03-10T10:25:25.558Z,9.23
2019-03-10T10:30:54.517Z,9.36
2019-03-10T10:36:31.030Z,9.46
2019-03-10T10:42:00.429Z,9.60
2019-03-10T10:47:20.663Z,9.43
2019-03-10T10:52:43.689Z,9.90
2019-03-10T10:58:13.129Z,10.64
2019-03-10T11:03:36.082Z,10.68
2019-03-10T11:09:14.064Z,11.19
2019-03-10T11:14:43.153Z,11.03
2019-03-10T11:20:03.429Z,11.32
2019-03-10T11:25:23.634Z,11.08
2019-03-10T11:30:46.545Z,10.88
2019-03-10T11:36:15.880Z,10.39
2019-03-10T11:41:36.108Z,10.56
2019-03-10T11:46:59.154Z,10.65
2019-03-10T11:52:22.135Z,10.91
2019-03-10T11:57:42.589Z,11.12
2019-03-10T12:03:05.621Z,11.02
2019-03-10T12:08:25.823Z,11.20
2019-03-10T12:13:47.863Z,10.90
2019-03-10T12:19:06.528Z,10.71
2019-03-10T12:24:25.171Z,10.93
2019-03-10T12:29:43.815Z,11.02
2019-03-10T12:35:02.402Z,10.81
2019-03-10T12:40:20.881Z,10.50
2019-03-10T12:45:39.440Z,10.42
2019-03-10T12:50:57.985Z,10.24
2019-03-10T12:56:16.531Z,10.09
2019-03-10T13:01:35.186Z,10.06
2019-03-10T13:06:53.824Z,9.55
2019-03-10T13:12:12.471Z,9.30
2019-03-10T13:17:31.110Z,9.00
2019-03-10T13:22:49.560Z,8.70
2019-03-10T13:28:08.188Z,8.76
2019-03-10T13:33:26.776Z,9.19
2019-03-10T13:38:45.777Z,9.27
2019-03-10T13:44:07.324Z,9.40
2019-03-10T13:49:25.870Z,9.53
2019-03-10T13:54:44.411Z,9.81
2019-03-10T14:00:03.114Z,10.07
2019-03-10T14:05:21.744Z,9.75
2019-03-10T14:10:40.418Z,9.66
2019-03-10T14:15:59.522Z,9.45
2019-03-10T14:21:18.183Z,9.27
2019-03-10T14:26:36.815Z,9.21
2019-03-10T14:31:55.432Z,9.06
2019-03-10T14:37:14.018Z,8.79
2019-03-10T14:42:32.626Z,8.65
2019-03-10T14:47:51.532Z,8.40
2019-03-10T14:53:10.073Z,8.11
2019-03-10T14:58:28.608Z,7.98
2019-03-10T15:03:47.227Z,7.90
2019-03-10T15:09:07.619Z,7.79
2019-03-10T15:14:26.266Z,7.64
2019-03-10T15:19:45.850Z,7.55
2019-03-10T15:25:06.749Z,7.50
2019-03-10T15:30:26.574Z,7.40
2019-03-10T15:35:45.244Z,7.37
2019-03-10T15:41:03.772Z,7.28
2019-03-10T15:46:23.401Z,7.22
2019-03-10T15:51:42.154Z,7.18
2019-03-10T15:57:02.425Z,7.12
2019-03-10T16:02:21.120Z,6.99
2019-03-10T16:07:39.739Z,6.97
2019-03-10T16:12:58.342Z,6.93
2019-03-10T16:18:16.889Z,6.69
2019-03-10T16:23:36.411Z,6.50
2019-03-10T16:28:55.045Z,6.32
2019-03-10T16:34:15.860Z,6.18
2019-03-10T16:39:34.651Z,5.95
2019-03-10T16:44:54.439Z,5.50
2019-03-10T16:50:15.910Z,5.40
2019-03-10T16:55:34.522Z,5.31
2019-03-10T17:00:53.137Z,5.24
2019-03-10T17:06:11.792Z,5.03
2019-03-10T17:11:30.381Z,4.84
2019-03-10T17:16:49.075Z,4.71
2019-03-10T17:22:07.700Z,4.62
2019-03-10T17:27:26.730Z,4.57
2019-03-10T17:32:45.333Z,4.44
2019-03-10T17:38:03.966Z,4.30
2019-03-10T17:43:23.975Z,4.22
2019-03-10T17:48:42.471Z,4.18
2019-03-10T17:54:01.137Z,4.18
2019-03-10T17:59:20.003Z,4.10
2019-03-10T18:04:38.534Z,4.07
2019-03-10T18:09:57.178Z,4.07
2019-03-10T18:15:19.156Z,4.08
2019-03-10T18:20:37.882Z,4.19
2019-03-10T18:25:56.712Z,4.29
2019-03-10T18:31:15.402Z,4.43
2019-03-10T18:36:33.886Z,4.49
2019-03-10T18:41:52.536Z,4.52
2019-03-10T18:47:11.396Z,4.44
2019-03-10T18:52:30.196Z,3.95
2019-03-10T18:57:48.878Z,3.77
2019-03-10T19:03:07.696Z,3.61
2019-03-10T19:08:26.399Z,3.67
2019-03-10T19:13:46.489Z,3.64
2019-03-10T19:19:05.101Z,3.54
2019-03-10T19:24:23.670Z,3.40
2019-03-10T19:29:42.211Z,3.23
2019-03-10T19:35:01.324Z,3.19
2019-03-10T19:40:21.925Z,3.27
2019-03-10T19:45:40.469Z,3.12
2019-03-10T19:50:59.082Z,3.12
2019-03-10T19:56:17.626Z,3.08
2019-03-10T20:01:37.090Z,3.28
2019-03-10T20:06:55.564Z,3.40
2019-03-10T20:12:14.194Z,3.51
2019-03-10T20:17:32.923Z,3.53
2019-03-10T20:22:51.533Z,3.56
2019-03-10T20:28:10.256Z,3.52
2019-03-10T20:33:28.914Z,2.61
2019-03-10T20:38:47.529Z,1.97
2019-03-10T20:44:06.131Z,1.82
2019-03-10T20:49:27.503Z,1.82
2019-03-10T20:54:46.127Z,1.82
2019-03-10T21:00:08.368Z,1.68
2019-03-10T21:05:26.951Z,1.50
2019-03-10T21:10:45.568Z,1.37
2019-03-10T21:16:04.571Z,0.91
2019-03-10T21:21:23.288Z,0.91
2019-03-10T21:26:41.916Z,0.80
2019-03-10T21:32:00.738Z,0.83
2019-03-10T21:37:19.435Z,0.88
2019-03-10T21:42:38.059Z,0.87
2019-03-10T21:47:56.810Z,0.90
2019-03-10T21:53:15.320Z,1.03
2019-03-10T21:58:33.859Z,1.30
2019-03-10T22:03:52.575Z,1.37
2019-03-10T22:09:11.338Z,1.45
2019-03-10T22:14:29.986Z,1.53
2019-03-10T22:19:48.551Z,1.35
2019-03-10T22:25:12.883Z,1.60
2019-03-10T22:30:28.479Z,1.71
2019-03-10T22:35:47.090Z,1.73
2019-03-10T22:41:05.717Z,1.78
2019-03-10T22:46:24.178Z,1.75
2019-03-10T22:51:42.723Z,1.87
2019-03-10T22:57:01.555Z,2.10
2019-03-10T23:02:20.196Z,2.12
2019-03-10T23:07:39.060Z,2.18
2019-03-10T23:12:57.864Z,2.27
2019-03-10T23:18:16.624Z,2.38
2019-03-10T23:23:35.160Z,2.50
2019-03-10T23:28:53.789Z,2.53
2019-03-10T23:34:12.721Z,2.59
2019-03-10T23:39:31.280Z,2.61
2019-03-10T23:44:50.111Z,2.81
2019-03-10T23:50:11.417Z,2.91
2019-03-10T23:55:29.971Z,3.01
